sensor_id;sensor_type;location;lat;lon;timestamp;pressure;altitude;pressure_sealevel;temperature;humidity
64698;BME280;51124;53.394;-6.294;2023-05-23T00:00:35;102308.79;;;21.49;8.73
64698;BME280;51124;53.394;-6.294;2023-05-23T00:03:03;102310.40;;;21.58;8.73
64698;BME280;51124;53.394;-6.294;2023-05-23T00:05:30;102311.76;;;21.42;8.45
64698;BME280;51124;53.394;-6.294;2023-05-23T00:07:57;102303.68;;;21.27;8.32
64698;BME280;51124;53.394;-6.294;2023-05-23T00:10:24;102302.15;;;21.17;8.16
64698;BME280;51124;53.394;-6.294;2023-05-23T00:12:52;102305.70;;;21.88;8.05
64698;BME280;51124;53.394;-6.294;2023-05-23T00:15:19;102305.58;;;21.72;8.20
64698;BME280;51124;53.394;-6.294;2023-05-23T00:17:46;102305.80;;;21.53;8.10
64698;BME280;51124;53.394;-6.294;2023-05-23T00:20:14;102307.24;;;21.66;8.10
64698;BME280;51124;53.394;-6.294;2023-05-23T00:22:41;102310.51;;;22.03;7.99
64698;BME280;51124;53.394;-6.294;2023-05-23T00:25:09;102306.60;;;20.77;8.06
64698;BME280;51124;53.394;-6.294;2023-05-23T00:27:36;102307.20;;;20.52;8.13
64698;BME280;51124;53.394;-6.294;2023-05-23T00:30:04;102311.38;;;21.04;7.94
64698;BME280;51124;53.394;-6.294;2023-05-23T00:32:31;102308.61;;;21.41;7.90
64698;BME280;51124;53.394;-6.294;2023-05-23T00:34:59;102301.88;;;21.35;7.74
64698;BME280;51124;53.394;-6.294;2023-05-23T00:37:26;102303.15;;;21.43;7.76
64698;BME280;51124;53.394;-6.294;2023-05-23T00:39:53;102307.15;;;20.02;8.20
64698;BME280;51124;53.394;-6.294;2023-05-23T00:42:20;102300.57;;;20.60;8.03
64698;BME280;51124;53.394;-6.294;2023-05-23T00:44:48;102306.41;;;20.65;8.02
64698;BME280;51124;53.394;-6.294;2023-05-23T00:47:15;102302.05;;;20.25;8.08
64698;BME280;51124;53.394;-6.294;2023-05-23T00:49:43;102299.06;;;21.68;7.81
64698;BME280;51124;53.394;-6.294;2023-05-23T00:52:11;102297.33;;;21.22;8.01
64698;BME280;51124;53.394;-6.294;2023-05-23T00:54:39;102293.73;;;21.33;7.82
64698;BME280;51124;53.394;-6.294;2023-05-23T00:57:07;102289.47;;;20.70;7.88
64698;BME280;51124;53.394;-6.294;2023-05-23T00:59:37;102290.12;;;20.75;8.01
64698;BME280;51124;53.394;-6.294;2023-05-23T01:02:04;102287.95;;;21.60;7.85
64698;BME280;51124;53.394;-6.294;2023-05-23T01:04:32;102291.59;;;21.61;7.83
64698;BME280;51124;53.394;-6.294;2023-05-23T01:07:00;102293.81;;;20.93;7.97
64698;BME280;51124;53.394;-6.294;2023-05-23T01:09:28;102294.06;;;21.49;7.86
64698;BME280;51124;53.394;-6.294;2023-05-23T01:12:09;102290.17;;;20.64;7.80
64698;BME280;51124;53.394;-6.294;2023-05-23T01:14:34;102292.03;;;21.05;7.91
64698;BME280;51124;53.394;-6.294;2023-05-23T01:17:10;102291.97;;;21.62;7.72
64698;BME280;51124;53.394;-6.294;2023-05-23T01:19:50;102294.15;;;21.60;7.80
64698;BME280;51124;53.394;-6.294;2023-05-23T01:22:20;102292.21;;;20.70;7.89
64698;BME280;51124;53.394;-6.294;2023-05-23T01:24:50;102296.93;;;21.77;7.96
64698;BME280;51124;53.394;-6.294;2023-05-23T01:27:18;102298.79;;;20.22;8.40
64698;BME280;51124;53.394;-6.294;2023-05-23T01:29:42;102296.53;;;21.53;7.84
64698;BME280;51124;53.394;-6.294;2023-05-23T01:32:11;102304.13;;;21.07;7.92
64698;BME280;51124;53.394;-6.294;2023-05-23T01:34:40;102304.17;;;20.97;8.07
64698;BME280;51124;53.394;-6.294;2023-05-23T01:37:09;102301.82;;;20.53;8.09
64698;BME280;51124;53.394;-6.294;2023-05-23T01:39:37;102305.29;;;20.87;8.00
64698;BME280;51124;53.394;-6.294;2023-05-23T01:42:05;102307.78;;;21.67;7.89
64698;BME280;51124;53.394;-6.294;2023-05-23T01:44:33;102305.09;;;21.31;7.76
64698;BME280;51124;53.394;-6.294;2023-05-23T01:47:02;102301.47;;;20.72;7.93
64698;BME280;51124;53.394;-6.294;2023-05-23T01:49:31;102302.77;;;21.14;7.92
64698;BME280;51124;53.394;-6.294;2023-05-23T01:52:00;102303.93;;;20.61;8.01
64698;BME280;51124;53.394;-6.294;2023-05-23T01:54:28;102314.87;;;24.10;7.76
64698;BME280;51124;53.394;-6.294;2023-05-23T01:56:57;102315.99;;;22.73;8.54
64698;BME280;51124;53.394;-6.294;2023-05-23T01:59:25;102319.94;;;22.02;8.69
64698;BME280;51124;53.394;-6.294;2023-05-23T02:01:54;102318.55;;;22.01;8.38
64698;BME280;51124;53.394;-6.294;2023-05-23T02:04:22;102311.36;;;24.14;8.71
64698;BME280;51124;53.394;-6.294;2023-05-23T02:06:50;102321.55;;;23.93;9.07
64698;BME280;51124;53.394;-6.294;2023-05-23T02:09:17;102329.75;;;23.08;9.50
64698;BME280;51124;53.394;-6.294;2023-05-23T02:11:45;102322.35;;;23.69;9.61
64698;BME280;51124;53.394;-6.294;2023-05-23T02:14:12;102323.11;;;23.43;9.71
64698;BME280;51124;53.394;-6.294;2023-05-23T02:16:39;102322.98;;;22.90;9.72
64698;BME280;51124;53.394;-6.294;2023-05-23T02:19:07;102325.99;;;22.44;10.03
64698;BME280;51124;53.394;-6.294;2023-05-23T02:21:34;102317.55;;;22.96;10.15
64698;BME280;51124;53.394;-6.294;2023-05-23T02:24:02;102315.85;;;22.92;10.09
64698;BME280;51124;53.394;-6.294;2023-05-23T02:26:29;102316.74;;;23.13;10.02
64698;BME280;51124;53.394;-6.294;2023-05-23T02:28:57;102321.54;;;22.93;10.21
64698;BME280;51124;53.394;-6.294;2023-05-23T02:31:25;102319.86;;;22.71;10.30
64698;BME280;51124;53.394;-6.294;2023-05-23T02:33:52;102318.06;;;23.17;10.20
64698;BME280;51124;53.394;-6.294;2023-05-23T02:36:19;102312.96;;;22.84;10.15
64698;BME280;51124;53.394;-6.294;2023-05-23T02:38:47;102312.29;;;22.67;10.24
64698;BME280;51124;53.394;-6.294;2023-05-23T02:41:14;102317.39;;;23.20;10.19
64698;BME280;51124;53.394;-6.294;2023-05-23T02:43:43;102321.37;;;22.90;10.16
64698;BME280;51124;53.394;-6.294;2023-05-23T02:46:11;102324.46;;;22.83;10.24
64698;BME280;51124;53.394;-6.294;2023-05-23T02:48:38;102323.33;;;22.67;10.23
64698;BME280;51124;53.394;-6.294;2023-05-23T02:51:05;102322.32;;;22.97;10.13
64698;BME280;51124;53.394;-6.294;2023-05-23T02:53:33;102323.46;;;22.34;10.24
64698;BME280;51124;53.394;-6.294;2023-05-23T02:56:00;102324.43;;;20.97;10.03
64698;BME280;51124;53.394;-6.294;2023-05-23T02:58:27;102320.31;;;20.39;9.66
64698;BME280;51124;53.394;-6.294;2023-05-23T03:00:55;102324.15;;;20.97;9.36
64698;BME280;51124;53.394;-6.294;2023-05-23T03:03:22;102324.00;;;20.33;9.13
64698;BME280;51124;53.394;-6.294;2023-05-23T03:05:50;102324.11;;;21.06;9.01
64698;BME280;51124;53.394;-6.294;2023-05-23T03:08:17;102322.08;;;20.64;8.79
64698;BME280;51124;53.394;-6.294;2023-05-23T03:10:44;102323.91;;;20.92;8.57
64698;BME280;51124;53.394;-6.294;2023-05-23T03:13:12;102323.08;;;20.14;8.57
64698;BME280;51124;53.394;-6.294;2023-05-23T03:15:39;102316.00;;;21.49;8.25
64698;BME280;51124;53.394;-6.294;2023-05-23T03:18:06;102315.73;;;20.36;8.29
64698;BME280;51124;53.394;-6.294;2023-05-23T03:20:34;102316.32;;;20.40;8.41
64698;BME280;51124;53.394;-6.294;2023-05-23T03:23:01;102317.63;;;20.67;8.31
64698;BME280;51124;53.394;-6.294;2023-05-23T03:25:28;102318.58;;;21.31;8.19
64698;BME280;51124;53.394;-6.294;2023-05-23T03:27:56;102317.55;;;20.82;8.18
64698;BME280;51124;53.394;-6.294;2023-05-23T03:30:23;102320.24;;;20.77;8.22
64698;BME280;51124;53.394;-6.294;2023-05-23T03:32:50;102316.63;;;20.37;8.25
64698;BME280;51124;53.394;-6.294;2023-05-23T03:35:18;102318.71;;;20.78;8.20
64698;BME280;51124;53.394;-6.294;2023-05-23T03:37:45;102318.88;;;20.59;8.14
64698;BME280;51124;53.394;-6.294;2023-05-23T03:40:13;102321.27;;;20.52;8.08
64698;BME280;51124;53.394;-6.294;2023-05-23T03:42:40;102321.88;;;21.23;7.90
64698;BME280;51124;53.394;-6.294;2023-05-23T03:45:08;102316.88;;;21.06;7.82
64698;BME280;51124;53.394;-6.294;2023-05-23T03:47:35;102315.32;;;20.94;7.98
64698;BME280;51124;53.394;-6.294;2023-05-23T03:50:03;102309.95;;;21.57;7.75
64698;BME280;51124;53.394;-6.294;2023-05-23T03:52:30;102301.60;;;21.09;7.88
64698;BME280;51124;53.394;-6.294;2023-05-23T03:54:57;102301.70;;;20.85;7.89
64698;BME280;51124;53.394;-6.294;2023-05-23T03:57:25;102299.98;;;20.65;7.93
64698;BME280;51124;53.394;-6.294;2023-05-23T03:59:52;102300.73;;;20.59;8.01
64698;BME280;51124;53.394;-6.294;2023-05-23T04:02:19;102301.99;;;21.15;7.87
64698;BME280;51124;53.394;-6.294;2023-05-23T04:04:46;102300.67;;;20.94;7.83
64698;BME280;51124;53.394;-6.294;2023-05-23T04:07:14;102300.55;;;21.14;7.78
64698;BME280;51124;53.394;-6.294;2023-05-23T04:09:41;102296.82;;;20.88;7.97
64698;BME280;51124;53.394;-6.294;2023-05-23T04:12:09;102291.23;;;20.65;7.97
64698;BME280;51124;53.394;-6.294;2023-05-23T04:14:36;102291.33;;;20.95;7.87
64698;BME280;51124;53.394;-6.294;2023-05-23T04:17:03;102289.79;;;20.74;7.84
64698;BME280;51124;53.394;-6.294;2023-05-23T04:19:30;102288.03;;;20.53;7.95
64698;BME280;51124;53.394;-6.294;2023-05-23T04:21:58;102290.13;;;20.81;7.95
64698;BME280;51124;53.394;-6.294;2023-05-23T04:24:25;102291.39;;;21.06;7.84
64698;BME280;51124;53.394;-6.294;2023-05-23T04:26:52;102295.42;;;20.79;7.92
64698;BME280;51124;53.394;-6.294;2023-05-23T04:29:19;102295.07;;;21.21;8.04
64698;BME280;51124;53.394;-6.294;2023-05-23T04:31:47;102295.73;;;21.08;7.91
64698;BME280;51124;53.394;-6.294;2023-05-23T04:34:14;102295.75;;;20.41;8.02
64698;BME280;51124;53.394;-6.294;2023-05-23T04:36:41;102293.54;;;21.62;7.82
64698;BME280;51124;53.394;-6.294;2023-05-23T04:39:08;102297.14;;;20.04;8.17
64698;BME280;51124;53.394;-6.294;2023-05-23T04:41:35;102295.47;;;21.24;7.93
64698;BME280;51124;53.394;-6.294;2023-05-23T04:44:03;102297.36;;;20.83;8.10
64698;BME280;51124;53.394;-6.294;2023-05-23T04:46:30;102302.43;;;21.10;7.84
64698;BME280;51124;53.394;-6.294;2023-05-23T04:48:57;102296.85;;;20.50;7.89
64698;BME280;51124;53.394;-6.294;2023-05-23T04:51:24;102290.83;;;21.32;7.77
64698;BME280;51124;53.394;-6.294;2023-05-23T04:53:52;102293.20;;;21.32;7.78
64698;BME280;51124;53.394;-6.294;2023-05-23T04:56:19;102291.68;;;21.47;7.77
64698;BME280;51124;53.394;-6.294;2023-05-23T04:58:47;102301.38;;;22.69;8.13
64698;BME280;51124;53.394;-6.294;2023-05-23T05:01:14;102310.88;;;22.17;8.50
64698;BME280;51124;53.394;-6.294;2023-05-23T05:03:41;102308.98;;;20.63;8.64
64698;BME280;51124;53.394;-6.294;2023-05-23T05:06:09;102311.11;;;22.99;8.43
64698;BME280;51124;53.394;-6.294;2023-05-23T05:08:37;102316.53;;;23.06;9.10
64698;BME280;51124;53.394;-6.294;2023-05-23T05:11:04;102321.08;;;23.92;9.25
64698;BME280;51124;53.394;-6.294;2023-05-23T05:13:32;102319.69;;;23.47;9.49
64698;BME280;51124;53.394;-6.294;2023-05-23T05:15:59;102326.64;;;22.71;9.73
64698;BME280;51124;53.394;-6.294;2023-05-23T05:18:27;102324.44;;;23.00;9.75
64698;BME280;51124;53.394;-6.294;2023-05-23T05:20:55;102322.85;;;23.37;9.72
64698;BME280;51124;53.394;-6.294;2023-05-23T05:23:26;102322.76;;;23.10;9.93
64698;BME280;51124;53.394;-6.294;2023-05-23T05:25:53;102319.91;;;23.68;9.78
64698;BME280;51124;53.394;-6.294;2023-05-23T05:28:21;102312.89;;;24.28;9.69
64698;BME280;51124;53.394;-6.294;2023-05-23T05:30:49;102316.95;;;23.36;9.82
64698;BME280;51124;53.394;-6.294;2023-05-23T05:33:16;102316.05;;;22.47;10.14
64698;BME280;51124;53.394;-6.294;2023-05-23T05:35:44;102314.64;;;23.35;9.95
64698;BME280;51124;53.394;-6.294;2023-05-23T05:38:11;102313.06;;;23.37;9.97
64698;BME280;51124;53.394;-6.294;2023-05-23T05:40:39;102313.88;;;23.96;9.78
64698;BME280;51124;53.394;-6.294;2023-05-23T05:43:06;102313.50;;;22.90;10.02
64698;BME280;51124;53.394;-6.294;2023-05-23T05:45:34;102312.30;;;22.99;10.01
64698;BME280;51124;53.394;-6.294;2023-05-23T05:48:01;102310.26;;;23.47;9.91
64698;BME280;51124;53.394;-6.294;2023-05-23T05:50:29;102312.72;;;22.29;10.09
64698;BME280;51124;53.394;-6.294;2023-05-23T05:52:56;102314.47;;;23.02;9.96
64698;BME280;51124;53.394;-6.294;2023-05-23T05:55:24;102316.33;;;22.73;9.99
64698;BME280;51124;53.394;-6.294;2023-05-23T05:57:51;102311.09;;;20.78;9.99
64698;BME280;51124;53.394;-6.294;2023-05-23T06:00:19;102304.45;;;21.11;9.54
64698;BME280;51124;53.394;-6.294;2023-05-23T06:02:47;102307.69;;;19.84;9.69
64698;BME280;51124;53.394;-6.294;2023-05-23T06:05:14;102304.55;;;19.83;9.67
64698;BME280;51124;53.394;-6.294;2023-05-23T06:07:42;102303.39;;;20.01;9.58
64698;BME280;51124;53.394;-6.294;2023-05-23T06:10:10;102297.90;;;21.31;8.77
64698;BME280;51124;53.394;-6.294;2023-05-23T06:12:38;102303.67;;;19.98;8.91
64698;BME280;51124;53.394;-6.294;2023-05-23T06:15:07;102299.19;;;19.59;8.87
64698;BME280;51124;53.394;-6.294;2023-05-23T06:17:35;102300.28;;;20.41;8.48
64698;BME280;51124;53.394;-6.294;2023-05-23T06:20:02;102297.32;;;19.61;8.78
64698;BME280;51124;53.394;-6.294;2023-05-23T06:22:30;102299.30;;;18.79;8.88
64698;BME280;51124;53.394;-6.294;2023-05-23T06:24:57;102295.85;;;20.41;8.44
64698;BME280;51124;53.394;-6.294;2023-05-23T06:27:24;102301.48;;;20.14;8.61
64698;BME280;51124;53.394;-6.294;2023-05-23T06:29:52;102303.95;;;21.00;8.32
64698;BME280;51124;53.394;-6.294;2023-05-23T06:32:19;102309.63;;;19.99;8.56
64698;BME280;51124;53.394;-6.294;2023-05-23T06:34:46;102312.31;;;18.74;8.66
64698;BME280;51124;53.394;-6.294;2023-05-23T06:37:13;102315.52;;;18.95;8.66
64698;BME280;51124;53.394;-6.294;2023-05-23T06:39:41;102317.86;;;18.87;8.62
64698;BME280;51124;53.394;-6.294;2023-05-23T06:42:08;102315.54;;;19.95;8.27
64698;BME280;51124;53.394;-6.294;2023-05-23T06:44:35;102316.65;;;20.54;8.10
64698;BME280;51124;53.394;-6.294;2023-05-23T06:47:03;102317.95;;;21.28;8.09
64698;BME280;51124;53.394;-6.294;2023-05-23T06:49:30;102320.45;;;20.29;8.28
64698;BME280;51124;53.394;-6.294;2023-05-23T06:51:57;102323.44;;;21.09;7.97
64698;BME280;51124;53.394;-6.294;2023-05-23T06:54:26;102319.88;;;21.08;8.07
64698;BME280;51124;53.394;-6.294;2023-05-23T06:56:53;102319.52;;;20.85;8.10
64698;BME280;51124;53.394;-6.294;2023-05-23T06:59:20;102312.33;;;21.69;7.79
64698;BME280;51124;53.394;-6.294;2023-05-23T07:01:48;102311.88;;;21.20;8.02
64698;BME280;51124;53.394;-6.294;2023-05-23T07:04:15;102312.60;;;21.05;8.16
64698;BME280;51124;53.394;-6.294;2023-05-23T07:06:42;102311.14;;;20.29;8.37
64698;BME280;51124;53.394;-6.294;2023-05-23T07:09:10;102310.93;;;19.47;8.44
64698;BME280;51124;53.394;-6.294;2023-05-23T07:11:37;102312.83;;;19.00;8.49
64698;BME280;51124;53.394;-6.294;2023-05-23T07:14:05;102318.61;;;20.48;8.39
64698;BME280;51124;53.394;-6.294;2023-05-23T07:16:32;102318.43;;;22.39;7.64
64698;BME280;51124;53.394;-6.294;2023-05-23T07:19:00;102318.17;;;22.09;7.71
64698;BME280;51124;53.394;-6.294;2023-05-23T07:21:27;102317.39;;;20.00;8.23
64698;BME280;51124;53.394;-6.294;2023-05-23T07:23:55;102318.95;;;20.72;8.18
64698;BME280;51124;53.394;-6.294;2023-05-23T07:26:22;102319.15;;;23.14;7.37
64698;BME280;51124;53.394;-6.294;2023-05-23T07:28:49;102319.63;;;22.31;7.58
64698;BME280;51124;53.394;-6.294;2023-05-23T07:31:17;102317.10;;;23.45;7.31
64698;BME280;51124;53.394;-6.294;2023-05-23T07:33:44;102317.48;;;24.18;7.33
64698;BME280;51124;53.394;-6.294;2023-05-23T07:36:11;102308.48;;;23.55;7.45
64698;BME280;51124;53.394;-6.294;2023-05-23T07:38:39;102312.22;;;23.18;7.37
64698;BME280;51124;53.394;-6.294;2023-05-23T07:41:06;102315.46;;;23.64;7.43
64698;BME280;51124;53.394;-6.294;2023-05-23T07:43:33;102312.10;;;23.81;7.50
64698;BME280;51124;53.394;-6.294;2023-05-23T07:46:01;102307.78;;;24.61;7.52
64698;BME280;51124;53.394;-6.294;2023-05-23T07:48:28;102307.01;;;23.98;7.51
64698;BME280;51124;53.394;-6.294;2023-05-23T07:50:56;102310.29;;;23.94;7.59
64698;BME280;51124;53.394;-6.294;2023-05-23T07:53:23;102317.29;;;23.24;7.57
64698;BME280;51124;53.394;-6.294;2023-05-23T07:55:50;102321.80;;;23.48;7.52
64698;BME280;51124;53.394;-6.294;2023-05-23T07:58:17;102327.17;;;23.50;7.50
64698;BME280;51124;53.394;-6.294;2023-05-23T08:00:46;102327.04;;;23.49;7.36
64698;BME280;51124;53.394;-6.294;2023-05-23T08:03:16;102328.00;;;25.58;7.46
64698;BME280;51124;53.394;-6.294;2023-05-23T08:05:44;102334.98;;;26.03;7.78
64698;BME280;51124;53.394;-6.294;2023-05-23T08:08:12;102333.09;;;25.73;8.14
64698;BME280;51124;53.394;-6.294;2023-05-23T08:10:41;102336.15;;;24.21;8.27
64698;BME280;51124;53.394;-6.294;2023-05-23T08:13:10;102333.19;;;24.71;8.19
64698;BME280;51124;53.394;-6.294;2023-05-23T08:15:39;102332.36;;;26.56;8.20
64698;BME280;51124;53.394;-6.294;2023-05-23T08:18:06;102333.91;;;26.22;8.72
64698;BME280;51124;53.394;-6.294;2023-05-23T08:20:34;102336.04;;;26.89;8.95
64698;BME280;51124;53.394;-6.294;2023-05-23T08:23:02;102335.17;;;26.08;9.14
64698;BME280;51124;53.394;-6.294;2023-05-23T08:25:29;102334.37;;;25.51;9.25
64698;BME280;51124;53.394;-6.294;2023-05-23T08:27:57;102325.65;;;25.49;9.40
64698;BME280;51124;53.394;-6.294;2023-05-23T08:30:26;102324.36;;;26.61;9.32
64698;BME280;51124;53.394;-6.294;2023-05-23T08:32:54;102326.40;;;26.22;9.33
64698;BME280;51124;53.394;-6.294;2023-05-23T08:35:23;102327.70;;;26.35;9.35
64698;BME280;51124;53.394;-6.294;2023-05-23T08:37:51;102331.74;;;26.07;9.34
64698;BME280;51124;53.394;-6.294;2023-05-23T08:40:20;102332.65;;;25.61;9.31
64698;BME280;51124;53.394;-6.294;2023-05-23T08:42:49;102329.42;;;25.57;9.17
64698;BME280;51124;53.394;-6.294;2023-05-23T08:45:17;102326.38;;;25.70;9.03
64698;BME280;51124;53.394;-6.294;2023-05-23T08:47:45;102330.81;;;26.09;9.08
64698;BME280;51124;53.394;-6.294;2023-05-23T08:50:15;102327.26;;;26.12;9.00
64698;BME280;51124;53.394;-6.294;2023-05-23T08:52:46;102337.49;;;26.04;8.98
64698;BME280;51124;53.394;-6.294;2023-05-23T08:55:17;102336.98;;;25.98;8.99
64698;BME280;51124;53.394;-6.294;2023-05-23T08:57:45;102337.02;;;26.14;9.08
64698;BME280;51124;53.394;-6.294;2023-05-23T09:00:13;102331.70;;;26.17;9.03
64698;BME280;51124;53.394;-6.294;2023-05-23T09:02:42;102328.77;;;26.26;9.00
64698;BME280;51124;53.394;-6.294;2023-05-23T09:05:09;102326.47;;;25.46;9.15
64698;BME280;51124;53.394;-6.294;2023-05-23T09:07:37;102325.42;;;24.47;8.91
64698;BME280;51124;53.394;-6.294;2023-05-23T09:10:07;102313.09;;;23.94;8.69
64698;BME280;51124;53.394;-6.294;2023-05-23T09:12:35;102313.09;;;24.38;8.48
64698;BME280;51124;53.394;-6.294;2023-05-23T09:15:03;102311.30;;;24.99;8.13
64698;BME280;51124;53.394;-6.294;2023-05-23T09:17:32;102305.30;;;24.97;8.16
64698;BME280;51124;53.394;-6.294;2023-05-23T09:19:59;102305.22;;;24.93;8.14
64698;BME280;51124;53.394;-6.294;2023-05-23T09:22:27;102307.41;;;24.59;8.09
64698;BME280;51124;53.394;-6.294;2023-05-23T09:24:56;102302.06;;;24.36;7.87
64698;BME280;51124;53.394;-6.294;2023-05-23T09:27:24;102299.95;;;25.05;7.59
64698;BME280;51124;53.394;-6.294;2023-05-23T09:29:51;102306.53;;;23.89;7.64
64698;BME280;51124;53.394;-6.294;2023-05-23T09:32:19;102305.89;;;24.46;7.64
64698;BME280;51124;53.394;-6.294;2023-05-23T09:34:57;102304.50;;;24.79;7.50
64698;BME280;51124;53.394;-6.294;2023-05-23T09:37:15;102295.60;;;24.63;7.49
64698;BME280;51124;53.394;-6.294;2023-05-23T09:39:46;102296.63;;;24.76;7.27
64698;BME280;51124;53.394;-6.294;2023-05-23T09:42:19;102297.37;;;24.84;7.18
64698;BME280;51124;53.394;-6.294;2023-05-23T09:44:47;102294.79;;;25.02;7.17
64698;BME280;51124;53.394;-6.294;2023-05-23T09:47:14;102293.64;;;25.05;7.09
64698;BME280;51124;53.394;-6.294;2023-05-23T09:49:42;102294.46;;;24.97;7.24
64698;BME280;51124;53.394;-6.294;2023-05-23T09:52:09;102286.11;;;25.02;7.08
64698;BME280;51124;53.394;-6.294;2023-05-23T09:54:45;102275.23;;;26.57;6.81
64698;BME280;51124;53.394;-6.294;2023-05-23T09:57:03;102280.05;;;25.59;6.71
64698;BME280;51124;53.394;-6.294;2023-05-23T09:59:37;102278.15;;;26.32;6.54
64698;BME280;51124;53.394;-6.294;2023-05-23T10:02:10;102281.31;;;25.33;6.66
64698;BME280;51124;53.394;-6.294;2023-05-23T10:04:38;102281.76;;;25.04;6.74
64698;BME280;51124;53.394;-6.294;2023-05-23T10:07:12;102286.35;;;25.49;6.71
64698;BME280;51124;53.394;-6.294;2023-05-23T10:09:46;102282.84;;;25.78;6.70
64698;BME280;51124;53.394;-6.294;2023-05-23T10:12:44;102282.09;;;24.15;6.93
64698;BME280;51124;53.394;-6.294;2023-05-23T10:14:46;102286.29;;;25.47;6.61
64698;BME280;51124;53.394;-6.294;2023-05-23T10:17:20;102290.81;;;24.59;6.64
64698;BME280;51124;53.394;-6.294;2023-05-23T10:19:56;102293.45;;;25.78;6.44
64698;BME280;51124;53.394;-6.294;2023-05-23T10:22:25;102284.42;;;25.15;6.33
64698;BME280;51124;53.394;-6.294;2023-05-23T10:24:53;102282.25;;;25.31;6.23
64698;BME280;51124;53.394;-6.294;2023-05-23T10:27:21;102283.26;;;25.59;6.09
64698;BME280;51124;53.394;-6.294;2023-05-23T10:29:49;102282.98;;;25.70;6.13
64698;BME280;51124;53.394;-6.294;2023-05-23T10:32:17;102272.60;;;26.02;6.08
64698;BME280;51124;53.394;-6.294;2023-05-23T10:34:56;102274.31;;;25.93;5.78
64698;BME280;51124;53.394;-6.294;2023-05-23T10:37:21;102285.13;;;25.06;5.74
64698;BME280;51124;53.394;-6.294;2023-05-23T10:39:57;102273.02;;;26.98;4.85
64698;BME280;51124;53.394;-6.294;2023-05-23T10:42:19;102275.39;;;25.69;5.42
64698;BME280;51124;53.394;-6.294;2023-05-23T10:44:48;102277.69;;;25.67;5.31
64698;BME280;51124;53.394;-6.294;2023-05-23T10:47:26;102260.26;;;26.26;5.48
64698;BME280;51124;53.394;-6.294;2023-05-23T10:49:45;102255.65;;;25.53;5.61
64698;BME280;51124;53.394;-6.294;2023-05-23T10:52:13;102259.59;;;25.74;5.70
64698;BME280;51124;53.394;-6.294;2023-05-23T10:54:44;102260.02;;;25.42;5.70
64698;BME280;51124;53.394;-6.294;2023-05-23T10:57:14;102260.20;;;26.08;5.71
64698;BME280;51124;53.394;-6.294;2023-05-23T10:59:43;102270.36;;;26.09;5.83
64698;BME280;51124;53.394;-6.294;2023-05-23T11:02:14;102258.15;;;25.51;5.77
64698;BME280;51124;53.394;-6.294;2023-05-23T11:04:43;102262.15;;;26.70;5.68
64698;BME280;51124;53.394;-6.294;2023-05-23T11:07:30;102269.81;;;26.01;5.76
64698;BME280;51124;53.394;-6.294;2023-05-23T11:10:01;102270.94;;;25.35;5.76
64698;BME280;51124;53.394;-6.294;2023-05-23T11:12:09;102258.58;;;26.08;5.73
64698;BME280;51124;53.394;-6.294;2023-05-23T11:14:54;102253.16;;;25.72;5.77
64698;BME280;51124;53.394;-6.294;2023-05-23T11:17:28;102250.93;;;26.11;5.72
64698;BME280;51124;53.394;-6.294;2023-05-23T11:20:04;102247.04;;;28.16;5.90
64698;BME280;51124;53.394;-6.294;2023-05-23T11:22:11;102248.18;;;27.77;6.34
64698;BME280;51124;53.394;-6.294;2023-05-23T11:24:55;102253.30;;;27.85;6.58
64698;BME280;51124;53.394;-6.294;2023-05-23T11:27:26;102252.17;;;27.38;6.45
64698;BME280;51124;53.394;-6.294;2023-05-23T11:29:44;102251.24;;;26.31;6.46
64698;BME280;51124;53.394;-6.294;2023-05-23T11:32:12;102245.50;;;29.74;6.56
64698;BME280;51124;53.394;-6.294;2023-05-23T11:34:40;102246.28;;;28.42;6.94
64698;BME280;51124;53.394;-6.294;2023-05-23T11:37:07;102243.60;;;29.78;6.89
64698;BME280;51124;53.394;-6.294;2023-05-23T11:39:35;102248.37;;;29.20;6.98
64698;BME280;51124;53.394;-6.294;2023-05-23T11:42:03;102246.01;;;28.80;7.11
64698;BME280;51124;53.394;-6.294;2023-05-23T11:44:31;102248.99;;;28.66;7.09
64698;BME280;51124;53.394;-6.294;2023-05-23T11:47:03;102253.24;;;28.68;6.50
64698;BME280;51124;53.394;-6.294;2023-05-23T11:49:32;102243.46;;;27.80;6.58
64698;BME280;51124;53.394;-6.294;2023-05-23T11:52:00;102243.35;;;27.83;6.31
64698;BME280;51124;53.394;-6.294;2023-05-23T11:54:28;102252.21;;;27.32;6.73
64698;BME280;51124;53.394;-6.294;2023-05-23T11:56:56;102244.49;;;28.00;6.49
64698;BME280;51124;53.394;-6.294;2023-05-23T11:59:25;102247.20;;;26.47;6.56
64698;BME280;51124;53.394;-6.294;2023-05-23T12:01:53;102249.32;;;27.10;6.42
64698;BME280;51124;53.394;-6.294;2023-05-23T12:04:20;102246.91;;;27.15;6.30
64698;BME280;51124;53.394;-6.294;2023-05-23T12:06:50;102243.45;;;27.79;6.49
64698;BME280;51124;53.394;-6.294;2023-05-23T12:09:17;102239.41;;;27.96;6.45
64698;BME280;51124;53.394;-6.294;2023-05-23T12:11:47;102235.23;;;28.37;6.36
64698;BME280;51124;53.394;-6.294;2023-05-23T12:14:16;102241.24;;;27.98;6.32
64698;BME280;51124;53.394;-6.294;2023-05-23T12:16:44;102238.71;;;27.81;6.14
64698;BME280;51124;53.394;-6.294;2023-05-23T12:19:12;102238.89;;;28.08;6.18
64698;BME280;51124;53.394;-6.294;2023-05-23T12:21:42;102229.54;;;27.74;5.89
64698;BME280;51124;53.394;-6.294;2023-05-23T12:24:15;102228.01;;;26.92;5.60
64698;BME280;51124;53.394;-6.294;2023-05-23T12:26:51;102216.77;;;27.48;5.05
64698;BME280;51124;53.394;-6.294;2023-05-23T12:29:09;102215.60;;;29.23;4.37
64698;BME280;51124;53.394;-6.294;2023-05-23T12:31:36;102218.05;;;29.54;3.97
64698;BME280;51124;53.394;-6.294;2023-05-23T12:34:03;102213.41;;;31.58;3.46
64698;BME280;51124;53.394;-6.294;2023-05-23T12:36:31;102216.06;;;30.38;3.32
64698;BME280;51124;53.394;-6.294;2023-05-23T12:39:03;102202.78;;;30.90;3.02
64698;BME280;51124;53.394;-6.294;2023-05-23T12:41:31;102202.83;;;30.86;2.88
64698;BME280;51124;53.394;-6.294;2023-05-23T12:43:59;102201.03;;;31.70;2.63
64698;BME280;51124;53.394;-6.294;2023-05-23T12:46:27;102200.49;;;31.94;2.44
64698;BME280;51124;53.394;-6.294;2023-05-23T12:48:55;102193.75;;;32.56;2.36
64698;BME280;51124;53.394;-6.294;2023-05-23T12:51:23;102186.68;;;32.65;2.18
64698;BME280;51124;53.394;-6.294;2023-05-23T12:53:50;102190.37;;;31.35;2.15